sensor_id;sensor_type;location;lat;lon;timestamp;temperature;humidity
18091;DHT22;9172;49.948;9.208;2023-03-14T00:00:18;10.30;99.90
18091;DHT22;9172;49.948;9.208;2023-03-14T00:05:28;10.30;99.90
18091;DHT22;9172;49.948;9.208;2023-03-14T00:07:57;10.30;99.90
18091;DHT22;9172;49.948;9.208;2023-03-14T00:10:25;10.30;99.90
18091;DHT22;9172;49.948;9.208;2023-03-14T00:12:54;10.40;99.90
18091;DHT22;9172;49.948;9.208;2023-03-14T00:15:23;10.30;99.90
18091;DHT22;9172;49.948;9.208;2023-03-14T00:17:52;10.30;99.90
18091;DHT22;9172;49.948;9.208;2023-03-14T00:20:20;10.40;99.90
18091;DHT22;9172;49.948;9.208;2023-03-14T00:22:50;10.40;99.90
18091;DHT22;9172;49.948;9.208;2023-03-14T00:25:19;10.40;99.90
18091;DHT22;9172;49.948;9.208;2023-03-14T00:27:47;10.40;99.90
18091;DHT22;9172;49.948;9.208;2023-03-14T00:30:18;10.40;99.90
18091;DHT22;9172;49.948;9.208;2023-03-14T00:32:47;10.40;99.90
18091;DHT22;9172;49.948;9.208;2023-03-14T00:35:17;10.40;99.90
18091;DHT22;9172;49.948;9.208;2023-03-14T00:37:45;10.40;99.90
18091;DHT22;9172;49.948;9.208;2023-03-14T00:40:14;10.40;99.90
18091;DHT22;9172;49.948;9.208;2023-03-14T00:42:42;10.40;99.90
18091;DHT22;9172;49.948;9.208;2023-03-14T00:45:12;10.40;99.90
18091;DHT22;9172;49.948;9.208;2023-03-14T00:47:41;10.40;99.90
18091;DHT22;9172;49.948;9.208;2023-03-14T00:50:13;10.40;99.90
18091;DHT22;9172;49.948;9.208;2023-03-14T00:52:42;10.40;99.90
18091;DHT22;9172;49.948;9.208;2023-03-14T00:55:10;10.40;99.90
18091;DHT22;9172;49.948;9.208;2023-03-14T00:57:40;10.40;99.90
18091;DHT22;9172;49.948;9.208;2023-03-14T01:00:11;10.40;99.90
18091;DHT22;9172;49.948;9.208;2023-03-14T01:02:40;10.50;99.90
18091;DHT22;9172;49.948;9.208;2023-03-14T01:05:10;10.40;99.90
18091;DHT22;9172;49.948;9.208;2023-03-14T01:07:38;10.40;99.90
18091;DHT22;9172;49.948;9.208;2023-03-14T01:10:10;10.40;99.90
18091;DHT22;9172;49.948;9.208;2023-03-14T01:12:40;10.50;99.90
18091;DHT22;9172;49.948;9.208;2023-03-14T01:15:10;10.50;99.90
18091;DHT22;9172;49.948;9.208;2023-03-14T01:17:39;10.50;99.90
18091;DHT22;9172;49.948;9.208;2023-03-14T01:20:12;10.50;99.90
18091;DHT22;9172;49.948;9.208;2023-03-14T01:22:43;10.50;99.90
18091;DHT22;9172;49.948;9.208;2023-03-14T01:25:14;10.50;99.90
18091;DHT22;9172;49.948;9.208;2023-03-14T01:27:44;10.50;99.90
18091;DHT22;9172;49.948;9.208;2023-03-14T01:30:15;10.50;99.90
18091;DHT22;9172;49.948;9.208;2023-03-14T01:32:44;10.50;99.90
18091;DHT22;9172;49.948;9.208;2023-03-14T01:35:14;10.40;99.90
18091;DHT22;9172;49.948;9.208;2023-03-14T01:37:42;10.50;99.90
18091;DHT22;9172;49.948;9.208;2023-03-14T01:40:12;10.50;99.90
18091;DHT22;9172;49.948;9.208;2023-03-14T01:42:47;10.50;99.90
18091;DHT22;9172;49.948;9.208;2023-03-14T01:48:28;10.50;99.90
18091;DHT22;9172;49.948;9.208;2023-03-14T01:51:00;10.50;99.90
18091;DHT22;9172;49.948;9.208;2023-03-14T01:53:31;10.40;99.90
18091;DHT22;9172;49.948;9.208;2023-03-14T01:56:00;10.40;99.90
18091;DHT22;9172;49.948;9.208;2023-03-14T01:58:31;10.50;99.90
18091;DHT22;9172;49.948;9.208;2023-03-14T02:01:02;10.50;99.90
18091;DHT22;9172;49.948;9.208;2023-03-14T02:03:34;10.50;99.90
18091;DHT22;9172;49.948;9.208;2023-03-14T02:06:06;10.50;99.90
18091;DHT22;9172;49.948;9.208;2023-03-14T02:08:36;10.50;99.90
18091;DHT22;9172;49.948;9.208;2023-03-14T02:11:06;10.50;99.90
18091;DHT22;9172;49.948;9.208;2023-03-14T02:13:35;10.40;99.90
18091;DHT22;9172;49.948;9.208;2023-03-14T02:16:06;10.50;99.90
18091;DHT22;9172;49.948;9.208;2023-03-14T02:18:35;10.50;99.90
18091;DHT22;9172;49.948;9.208;2023-03-14T02:21:05;10.50;99.90
18091;DHT22;9172;49.948;9.208;2023-03-14T02:23:39;10.50;99.90
18091;DHT22;9172;49.948;9.208;2023-03-14T02:26:09;10.50;99.90
18091;DHT22;9172;49.948;9.208;2023-03-14T02:28:40;10.50;99.90
18091;DHT22;9172;49.948;9.208;2023-03-14T02:31:09;10.50;99.90
18091;DHT22;9172;49.948;9.208;2023-03-14T02:33:38;10.50;99.90
18091;DHT22;9172;49.948;9.208;2023-03-14T02:36:10;10.40;99.90
18091;DHT22;9172;49.948;9.208;2023-03-14T02:38:43;10.50;99.90
18091;DHT22;9172;49.948;9.208;2023-03-14T02:41:12;10.50;99.90
18091;DHT22;9172;49.948;9.208;2023-03-14T02:43:41;10.50;99.90
18091;DHT22;9172;49.948;9.208;2023-03-14T02:46:11;10.60;99.90
18091;DHT22;9172;49.948;9.208;2023-03-14T02:48:43;10.50;99.90
18091;DHT22;9172;49.948;9.208;2023-03-14T02:51:13;10.50;99.90
18091;DHT22;9172;49.948;9.208;2023-03-14T02:53:42;10.50;99.90
18091;DHT22;9172;49.948;9.208;2023-03-14T02:56:11;10.50;99.90
18091;DHT22;9172;49.948;9.208;2023-03-14T02:58:40;10.50;99.90
18091;DHT22;9172;49.948;9.208;2023-03-14T03:01:08;10.50;99.90
18091;DHT22;9172;49.948;9.208;2023-03-14T03:03:38;10.50;99.90
18091;DHT22;9172;49.948;9.208;2023-03-14T03:06:07;10.50;99.90
18091;DHT22;9172;49.948;9.208;2023-03-14T03:08:38;10.50;99.90
18091;DHT22;9172;49.948;9.208;2023-03-14T03:11:07;10.50;99.90
18091;DHT22;9172;49.948;9.208;2023-03-14T03:13:36;10.50;99.90
18091;DHT22;9172;49.948;9.208;2023-03-14T03:16:06;10.50;99.90
18091;DHT22;9172;49.948;9.208;2023-03-14T03:18:35;10.50;99.90
18091;DHT22;9172;49.948;9.208;2023-03-14T03:21:05;10.50;99.90
18091;DHT22;9172;49.948;9.208;2023-03-14T03:23:36;10.50;99.90
18091;DHT22;9172;49.948;9.208;2023-03-14T03:26:06;10.50;99.90
18091;DHT22;9172;49.948;9.208;2023-03-14T03:28:35;10.40;99.90
18091;DHT22;9172;49.948;9.208;2023-03-14T03:31:09;10.40;99.90
18091;DHT22;9172;49.948;9.208;2023-03-14T03:33:38;10.40;99.90
18091;DHT22;9172;49.948;9.208;2023-03-14T03:36:09;10.40;99.90
18091;DHT22;9172;49.948;9.208;2023-03-14T03:38:38;10.30;99.90
18091;DHT22;9172;49.948;9.208;2023-03-14T03:41:07;10.30;99.90
18091;DHT22;9172;49.948;9.208;2023-03-14T03:43:37;10.30;99.90
18091;DHT22;9172;49.948;9.208;2023-03-14T03:46:06;10.30;99.90
18091;DHT22;9172;49.948;9.208;2023-03-14T03:48:36;10.30;99.90
18091;DHT22;9172;49.948;9.208;2023-03-14T03:51:05;10.30;99.90
18091;DHT22;9172;49.948;9.208;2023-03-14T03:53:34;10.30;99.90
18091;DHT22;9172;49.948;9.208;2023-03-14T03:56:05;10.30;99.90
18091;DHT22;9172;49.948;9.208;2023-03-14T03:58:35;10.30;99.90
18091;DHT22;9172;49.948;9.208;2023-03-14T04:01:06;10.30;99.90
18091;DHT22;9172;49.948;9.208;2023-03-14T04:03:35;10.30;99.90
18091;DHT22;9172;49.948;9.208;2023-03-14T04:06:08;10.30;99.90
18091;DHT22;9172;49.948;9.208;2023-03-14T04:08:38;10.30;99.90
18091;DHT22;9172;49.948;9.208;2023-03-14T04:11:08;10.30;99.90
18091;DHT22;9172;49.948;9.208;2023-03-14T04:13:36;10.20;99.90
18091;DHT22;9172;49.948;9.208;2023-03-14T04:16:10;10.20;99.90
18091;DHT22;9172;49.948;9.208;2023-03-14T04:18:41;10.20;99.90
18091;DHT22;9172;49.948;9.208;2023-03-14T04:21:10;10.20;99.90
18091;DHT22;9172;49.948;9.208;2023-03-14T04:23:41;10.20;99.90
18091;DHT22;9172;49.948;9.208;2023-03-14T04:26:10;10.20;99.90
18091;DHT22;9172;49.948;9.208;2023-03-14T04:31:17;10.20;99.90
18091;DHT22;9172;49.948;9.208;2023-03-14T04:33:46;10.10;99.90
18091;DHT22;9172;49.948;9.208;2023-03-14T04:36:17;10.10;99.90
18091;DHT22;9172;49.948;9.208;2023-03-14T04:38:46;10.10;99.90
18091;DHT22;9172;49.948;9.208;2023-03-14T04:41:15;10.10;99.90
18091;DHT22;9172;49.948;9.208;2023-03-14T04:43:44;10.10;99.90
18091;DHT22;9172;49.948;9.208;2023-03-14T04:46:12;10.10;99.90
18091;DHT22;9172;49.948;9.208;2023-03-14T04:48:42;10.10;99.90
18091;DHT22;9172;49.948;9.208;2023-03-14T04:51:11;10.10;99.90
18091;DHT22;9172;49.948;9.208;2023-03-14T04:53:41;10.10;99.90
18091;DHT22;9172;49.948;9.208;2023-03-14T04:56:10;10.10;99.90
18091;DHT22;9172;49.948;9.208;2023-03-14T04:58:41;10.10;99.90
18091;DHT22;9172;49.948;9.208;2023-03-14T05:01:09;10.10;99.90
18091;DHT22;9172;49.948;9.208;2023-03-14T05:03:38;10.10;99.90
18091;DHT22;9172;49.948;9.208;2023-03-14T05:06:07;10.10;99.90
18091;DHT22;9172;49.948;9.208;2023-03-14T05:08:37;10.10;99.90
18091;DHT22;9172;49.948;9.208;2023-03-14T05:11:09;10.10;99.90
18091;DHT22;9172;49.948;9.208;2023-03-14T05:13:37;10.10;99.90
18091;DHT22;9172;49.948;9.208;2023-03-14T05:16:09;10.10;99.90
18091;DHT22;9172;49.948;9.208;2023-03-14T05:18:38;10.20;99.90
18091;DHT22;9172;49.948;9.208;2023-03-14T05:21:07;10.20;99.90
18091;DHT22;9172;49.948;9.208;2023-03-14T05:23:36;10.20;99.90
18091;DHT22;9172;49.948;9.208;2023-03-14T05:26:06;10.20;99.90
18091;DHT22;9172;49.948;9.208;2023-03-14T05:28:35;10.10;99.90
18091;DHT22;9172;49.948;9.208;2023-03-14T05:31:08;10.10;99.90
18091;DHT22;9172;49.948;9.208;2023-03-14T05:33:38;10.10;99.90
18091;DHT22;9172;49.948;9.208;2023-03-14T05:36:08;10.10;99.90
18091;DHT22;9172;49.948;9.208;2023-03-14T05:38:37;10.10;99.90
18091;DHT22;9172;49.948;9.208;2023-03-14T05:41:06;10.20;99.90
18091;DHT22;9172;49.948;9.208;2023-03-14T05:43:36;10.20;99.90
18091;DHT22;9172;49.948;9.208;2023-03-14T05:46:06;10.20;99.90
18091;DHT22;9172;49.948;9.208;2023-03-14T05:48:34;10.10;99.90
18091;DHT22;9172;49.948;9.208;2023-03-14T05:51:03;10.10;99.90
18091;DHT22;9172;49.948;9.208;2023-03-14T05:53:31;10.10;99.90
18091;DHT22;9172;49.948;9.208;2023-03-14T05:56:00;10.10;99.90
18091;DHT22;9172;49.948;9.208;2023-03-14T05:58:28;10.20;99.90
18091;DHT22;9172;49.948;9.208;2023-03-14T06:00:57;10.20;99.90
18091;DHT22;9172;49.948;9.208;2023-03-14T06:03:26;10.20;99.90
18091;DHT22;9172;49.948;9.208;2023-03-14T06:05:55;10.20;99.90
18091;DHT22;9172;49.948;9.208;2023-03-14T06:08:23;10.20;99.90
18091;DHT22;9172;49.948;9.208;2023-03-14T06:10:52;10.20;99.90
18091;DHT22;9172;49.948;9.208;2023-03-14T06:13:21;10.20;99.90
18091;DHT22;9172;49.948;9.208;2023-03-14T06:15:49;10.20;99.90
18091;DHT22;9172;49.948;9.208;2023-03-14T06:18:18;10.20;99.90
18091;DHT22;9172;49.948;9.208;2023-03-14T06:20:46;10.20;99.90
18091;DHT22;9172;49.948;9.208;2023-03-14T06:23:16;10.20;99.90
18091;DHT22;9172;49.948;9.208;2023-03-14T06:25:45;10.20;99.90
18091;DHT22;9172;49.948;9.208;2023-03-14T06:28:15;10.20;99.90
18091;DHT22;9172;49.948;9.208;2023-03-14T06:30:43;10.20;99.90
18091;DHT22;9172;49.948;9.208;2023-03-14T06:33:13;10.20;99.90
18091;DHT22;9172;49.948;9.208;2023-03-14T06:35:42;10.20;99.90
18091;DHT22;9172;49.948;9.208;2023-03-14T06:38:10;10.20;99.90
18091;DHT22;9172;49.948;9.208;2023-03-14T06:40:39;10.20;99.90
18091;DHT22;9172;49.948;9.208;2023-03-14T06:43:08;10.20;99.90
18091;DHT22;9172;49.948;9.208;2023-03-14T06:45:37;10.20;99.90
18091;DHT22;9172;49.948;9.208;2023-03-14T06:48:06;10.30;99.90
18091;DHT22;9172;49.948;9.208;2023-03-14T06:50:35;10.30;99.90
18091;DHT22;9172;49.948;9.208;2023-03-14T06:53:04;10.30;99.90
18091;DHT22;9172;49.948;9.208;2023-03-14T06:55:33;10.20;99.90
18091;DHT22;9172;49.948;9.208;2023-03-14T06:58:01;10.20;99.90
18091;DHT22;9172;49.948;9.208;2023-03-14T07:00:31;10.20;99.90
18091;DHT22;9172;49.948;9.208;2023-03-14T07:02:59;10.30;99.90
18091;DHT22;9172;49.948;9.208;2023-03-14T07:05:29;10.30;99.90
18091;DHT22;9172;49.948;9.208;2023-03-14T07:07:58;10.20;99.90
18091;DHT22;9172;49.948;9.208;2023-03-14T07:10:26;10.30;99.90
18091;DHT22;9172;49.948;9.208;2023-03-14T07:12:56;10.20;99.90
18091;DHT22;9172;49.948;9.208;2023-03-14T07:15:25;10.20;99.90
18091;DHT22;9172;49.948;9.208;2023-03-14T07:17:54;10.20;99.90
18091;DHT22;9172;49.948;9.208;2023-03-14T07:20:22;10.20;99.90
18091;DHT22;9172;49.948;9.208;2023-03-14T07:22:51;10.10;99.90
18091;DHT22;9172;49.948;9.208;2023-03-14T07:25:21;10.10;99.90
18091;DHT22;9172;49.948;9.208;2023-03-14T07:27:50;10.10;99.90
18091;DHT22;9172;49.948;9.208;2023-03-14T07:30:19;10.10;99.90
18091;DHT22;9172;49.948;9.208;2023-03-14T07:32:48;10.10;99.90
18091;DHT22;9172;49.948;9.208;2023-03-14T07:35:17;10.10;99.90
18091;DHT22;9172;49.948;9.208;2023-03-14T07:37:47;10.00;99.90
18091;DHT22;9172;49.948;9.208;2023-03-14T07:40:17;10.10;99.90
18091;DHT22;9172;49.948;9.208;2023-03-14T07:42:46;10.10;99.90
18091;DHT22;9172;49.948;9.208;2023-03-14T07:45:16;10.00;99.90
18091;DHT22;9172;49.948;9.208;2023-03-14T07:47:45;10.00;99.90
18091;DHT22;9172;49.948;9.208;2023-03-14T07:50:15;10.00;99.90
18091;DHT22;9172;49.948;9.208;2023-03-14T07:52:43;10.00;99.90
18091;DHT22;9172;49.948;9.208;2023-03-14T07:55:12;10.10;99.90
18091;DHT22;9172;49.948;9.208;2023-03-14T07:57:41;10.00;99.90
18091;DHT22;9172;49.948;9.208;2023-03-14T08:00:12;10.00;99.90
18091;DHT22;9172;49.948;9.208;2023-03-14T08:02:41;10.00;99.90
18091;DHT22;9172;49.948;9.208;2023-03-14T08:05:10;10.10;99.90
18091;DHT22;9172;49.948;9.208;2023-03-14T08:07:38;10.10;99.90
18091;DHT22;9172;49.948;9.208;2023-03-14T08:10:10;10.00;99.90
18091;DHT22;9172;49.948;9.208;2023-03-14T08:12:40;10.00;99.90
18091;DHT22;9172;49.948;9.208;2023-03-14T08:15:10;10.00;99.90
18091;DHT22;9172;49.948;9.208;2023-03-14T08:17:39;10.10;99.90
18091;DHT22;9172;49.948;9.208;2023-03-14T08:20:09;10.10;99.90
18091;DHT22;9172;49.948;9.208;2023-03-14T08:22:39;10.10;99.90
18091;DHT22;9172;49.948;9.208;2023-03-14T08:25:08;10.10;99.90
18091;DHT22;9172;49.948;9.208;2023-03-14T08:27:37;10.10;99.90
18091;DHT22;9172;49.948;9.208;2023-03-14T08:30:13;10.10;99.90
18091;DHT22;9172;49.948;9.208;2023-03-14T08:32:39;10.10;99.90
18091;DHT22;9172;49.948;9.208;2023-03-14T08:35:09;10.10;99.90
18091;DHT22;9172;49.948;9.208;2023-03-14T08:37:39;10.20;99.90
18091;DHT22;9172;49.948;9.208;2023-03-14T08:40:13;10.20;99.90
18091;DHT22;9172;49.948;9.208;2023-03-14T08:42:42;10.20;99.90
18091;DHT22;9172;49.948;9.208;2023-03-14T08:45:14;10.20;99.90
18091;DHT22;9172;49.948;9.208;2023-03-14T08:47:43;10.20;99.90
18091;DHT22;9172;49.948;9.208;2023-03-14T08:50:13;10.20;99.90
18091;DHT22;9172;49.948;9.208;2023-03-14T08:52:42;10.20;99.90
18091;DHT22;9172;49.948;9.208;2023-03-14T08:55:11;10.30;99.90
18091;DHT22;9172;49.948;9.208;2023-03-14T08:57:40;10.30;99.90
18091;DHT22;9172;49.948;9.208;2023-03-14T09:00:11;10.30;99.90
18091;DHT22;9172;49.948;9.208;2023-03-14T09:02:42;10.30;99.90
18091;DHT22;9172;49.948;9.208;2023-03-14T09:05:12;10.30;99.90
18091;DHT22;9172;49.948;9.208;2023-03-14T09:07:42;10.30;99.90
18091;DHT22;9172;49.948;9.208;2023-03-14T09:10:11;10.40;99.90
18091;DHT22;9172;49.948;9.208;2023-03-14T09:12:40;10.40;99.90
18091;DHT22;9172;49.948;9.208;2023-03-14T09:15:10;10.40;99.90
18091;DHT22;9172;49.948;9.208;2023-03-14T09:17:39;10.40;99.90
18091;DHT22;9172;49.948;9.208;2023-03-14T09:20:10;10.50;99.90
18091;DHT22;9172;49.948;9.208;2023-03-14T09:22:38;10.50;99.90
18091;DHT22;9172;49.948;9.208;2023-03-14T09:25:08;10.50;99.90
18091;DHT22;9172;49.948;9.208;2023-03-14T09:27:39;10.60;99.90
18091;DHT22;9172;49.948;9.208;2023-03-14T09:30:11;10.70;99.90
18091;DHT22;9172;49.948;9.208;2023-03-14T09:32:40;10.70;99.90
18091;DHT22;9172;49.948;9.208;2023-03-14T09:35:10;10.70;99.90
18091;DHT22;9172;49.948;9.208;2023-03-14T09:37:40;10.70;99.90
18091;DHT22;9172;49.948;9.208;2023-03-14T09:40:14;10.70;99.90
18091;DHT22;9172;49.948;9.208;2023-03-14T09:42:43;10.80;99.90
18091;DHT22;9172;49.948;9.208;2023-03-14T09:45:14;10.80;99.90
18091;DHT22;9172;49.948;9.208;2023-03-14T09:47:45;10.80;99.90
18091;DHT22;9172;49.948;9.208;2023-03-14T09:50:16;10.70;99.90
18091;DHT22;9172;49.948;9.208;2023-03-14T09:52:47;10.70;99.90
18091;DHT22;9172;49.948;9.208;2023-03-14T09:55:18;10.70;99.90
18091;DHT22;9172;49.948;9.208;2023-03-14T09:57:50;10.80;99.90
18091;DHT22;9172;49.948;9.208;2023-03-14T10:00:23;10.80;99.90
18091;DHT22;9172;49.948;9.208;2023-03-14T10:02:54;10.80;99.90
18091;DHT22;9172;49.948;9.208;2023-03-14T10:05:25;10.80;99.90
18091;DHT22;9172;49.948;9.208;2023-03-14T10:07:55;10.80;99.90
18091;DHT22;9172;49.948;9.208;2023-03-14T10:10:25;10.80;99.90
18091;DHT22;9172;49.948;9.208;2023-03-14T10:12:58;10.80;99.90
18091;DHT22;9172;49.948;9.208;2023-03-14T10:15:29;10.90;99.90
18091;DHT22;9172;49.948;9.208;2023-03-14T10:18:01;10.90;99.90
18091;DHT22;9172;49.948;9.208;2023-03-14T10:20:33;10.90;99.90
18091;DHT22;9172;49.948;9.208;2023-03-14T10:23:03;10.90;99.90
18091;DHT22;9172;49.948;9.208;2023-03-14T10:25:34;10.90;99.90
18091;DHT22;9172;49.948;9.208;2023-03-14T10:28:04;10.90;99.90
18091;DHT22;9172;49.948;9.208;2023-03-14T10:30:39;10.90;99.90
18091;DHT22;9172;49.948;9.208;2023-03-14T10:33:11;10.90;99.90
18091;DHT22;9172;49.948;9.208;2023-03-14T10:35:40;10.90;99.90
18091;DHT22;9172;49.948;9.208;2023-03-14T10:38:13;10.90;99.90
18091;DHT22;9172;49.948;9.208;2023-03-14T10:40:46;10.80;99.90
18091;DHT22;9172;49.948;9.208;2023-03-14T10:43:18;10.80;99.90
18091;DHT22;9172;49.948;9.208;2023-03-14T10:45:54;10.80;99.90
18091;DHT22;9172;49.948;9.208;2023-03-14T10:48:31;10.70;99.90
18091;DHT22;9172;49.948;9.208;2023-03-14T10:51:06;10.70;99.90
18091;DHT22;9172;49.948;9.208;2023-03-14T10:53:41;10.70;99.90
18091;DHT22;9172;49.948;9.208;2023-03-14T10:56:13;10.70;99.90
18091;DHT22;9172;49.948;9.208;2023-03-14T10:58:44;10.60;99.90
18091;DHT22;9172;49.948;9.208;2023-03-14T11:01:34;10.60;99.90
18091;DHT22;9172;49.948;9.208;2023-03-14T11:04:09;10.40;99.90
18091;DHT22;9172;49.948;9.208;2023-03-14T11:06:42;10.40;99.90
18091;DHT22;9172;49.948;9.208;2023-03-14T11:09:15;10.40;99.90
18091;DHT22;9172;49.948;9.208;2023-03-14T11:11:47;10.40;99.90
18091;DHT22;9172;49.948;9.208;2023-03-14T11:14:22;10.30;99.90
18091;DHT22;9172;49.948;9.208;2023-03-14T11:16:57;10.30;99.90
18091;DHT22;9172;49.948;9.208;2023-03-14T11:19:38;10.30;99.90
18091;DHT22;9172;49.948;9.208;2023-03-14T11:22:14;10.30;99.90
18091;DHT22;9172;49.948;9.208;2023-03-14T11:24:57;10.30;99.90
18091;DHT22;9172;49.948;9.208;2023-03-14T11:30:13;10.20;99.90
18091;DHT22;9172;49.948;9.208;2023-03-14T11:32:45;10.20;99.90
18091;DHT22;9172;49.948;9.208;2023-03-14T11:35:19;10.10;99.90
18091;DHT22;9172;49.948;9.208;2023-03-14T11:37:51;10.10;99.90
18091;DHT22;9172;49.948;9.208;2023-03-14T11:40:23;10.10;99.90
18091;DHT22;9172;49.948;9.208;2023-03-14T11:42:56;10.20;99.90
18091;DHT22;9172;49.948;9.208;2023-03-14T11:45:29;10.20;99.90
18091;DHT22;9172;49.948;9.208;2023-03-14T11:48:17;10.10;99.90
18091;DHT22;9172;49.948;9.208;2023-03-14T11:50:49;10.10;99.90
18091;DHT22;9172;49.948;9.208;2023-03-14T11:53:21;10.10;99.90
18091;DHT22;9172;49.948;9.208;2023-03-14T11:55:51;10.10;99.90
18091;DHT22;9172;49.948;9.208;2023-03-14T11:58:23;10.10;99.90
18091;DHT22;9172;49.948;9.208;2023-03-14T12:00:56;10.10;99.90
18091;DHT22;9172;49.948;9.208;2023-03-14T12:03:28;10.10;99.90
18091;DHT22;9172;49.948;9.208;2023-03-14T12:06:03;10.10;99.90
18091;DHT22;9172;49.948;9.208;2023-03-14T12:08:45;10.10;99.90
18091;DHT22;9172;49.948;9.208;2023-03-14T12:11:21;10.00;99.90
18091;DHT22;9172;49.948;9.208;2023-03-14T12:13:52;10.00;99.90
18091;DHT22;9172;49.948;9.208;2023-03-14T12:16:41;10.00;99.90
18091;DHT22;9172;49.948;9.208;2023-03-14T12:19:26;10.00;99.90
18091;DHT22;9172;49.948;9.208;2023-03-14T12:21:59;10.00;99.90
18091;DHT22;9172;49.948;9.208;2023-03-14T12:24:30;10.00;99.90
18091;DHT22;9172;49.948;9.208;2023-03-14T12:27:00;10.00;99.90
18091;DHT22;9172;49.948;9.208;2023-03-14T12:29:30;10.00;99.90
18091;DHT22;9172;49.948;9.208;2023-03-14T12:32:21;10.00;99.90
18091;DHT22;9172;49.948;9.208;2023-03-14T12:34:51;10.00;99.90
18091;DHT22;9172;49.948;9.208;2023-03-14T12:37:31;10.00;99.90
18091;DHT22;9172;49.948;9.208;2023-03-14T12:40:12;10.10;99.90
18091;DHT22;9172;49.948;9.208;2023-03-14T12:42:53;10.10;99.90
18091;DHT22;9172;49.948;9.208;2023-03-14T12:45:25;10.10;99.90
18091;DHT22;9172;49.948;9.208;2023-03-14T12:47:56;10.20;99.90
18091;DHT22;9172;49.948;9.208;2023-03-14T12:50:33;10.10;99.90
18091;DHT22;9172;49.948;9.208;2023-03-14T12:59:34;9.70;99.90
18091;DHT22;9172;49.948;9.208;2023-03-14T13:02:19;9.40;99.90
18091;DHT22;9172;49.948;9.208;2023-03-14T13:04:50;9.20;99.90
18091;DHT22;9172;49.948;9.208;2023-03-14T13:08:02;9.00;99.90
18091;DHT22;9172;49.948;9.208;2023-03-14T13:10:19;9.00;99.90
18091;DHT22;9172;49.948;9.208;2023-03-14T13:12:52;8.90;99.90
18091;DHT22;9172;49.948;9.208;2023-03-14T13:15:26;8.70;99.90
18091;DHT22;9172;49.948;9.208;2023-03-14T13:18:00;8.70;99.90
18091;DHT22;9172;49.948;9.208;2023-03-14T13:20:32;8.70;99.90
18091;DHT22;9172;49.948;9.208;2023-03-14T13:23:03;8.70;99.90
18091;DHT22;9172;49.948;9.208;2023-03-14T13:25:34;8.70;99.90
18091;DHT22;9172;49.948;9.208;2023-03-14T13:28:04;8.70;99.90
18091;DHT22;9172;49.948;9.208;2023-03-14T13:30:40;8.70;99.90
18091;DHT22;9172;49.948;9.208;2023-03-14T13:33:15;8.70;99.90
18091;DHT22;9172;49.948;9.208;2023-03-14T13:35:46;8.70;99.90
18091;DHT22;9172;49.948;9.208;2023-03-14T13:38:18;8.80;99.90
18091;DHT22;9172;49.948;9.208;2023-03-14T13:40:49;8.90;99.90
18091;DHT22;9172;49.948;9.208;2023-03-14T13:43:23;8.90;99.90
18091;DHT22;9172;49.948;9.208;2023-03-14T13:45:53;8.90;99.90
18091;DHT22;9172;49.948;9.208;2023-03-14T13:48:26;8.90;99.90
18091;DHT22;9172;49.948;9.208;2023-03-14T13:50:59;8.90;99.90
18091;DHT22;9172;49.948;9.208;2023-03-14T13:53:28;8.80;99.90
18091;DHT22;9172;49.948;9.208;2023-03-14T13:56:00;8.80;99.90
18091;DHT22;9172;49.948;9.208;2023-03-14T13:58:29;8.80;99.90
18091;DHT22;9172;49.948;9.208;2023-03-14T14:01:13;8.80;99.90
18091;DHT22;9172;49.948;9.208;2023-03-14T14:03:44;8.80;99.90
18091;DHT22;9172;49.948;9.208;2023-03-14T14:06:27;8.80;99.90
18091;DHT22;9172;49.948;9.208;2023-03-14T14:08:57;8.60;99.90
18091;DHT22;9172;49.948;9.208;2023-03-14T14:11:38;8.50;99.90
18091;DHT22;9172;49.948;9.208;2023-03-14T14:16:54;8.30;99.90
18091;DHT22;9172;49.948;9.208;2023-03-14T14:19:27;8.20;99.90
18091;DHT22;9172;49.948;9.208;2023-03-14T14:21:58;8.20;99.90
18091;DHT22;9172;49.948;9.208;2023-03-14T14:24:30;8.10;99.90
18091;DHT22;9172;49.948;9.208;2023-03-14T14:27:01;8.20;99.90
18091;DHT22;9172;49.948;9.208;2023-03-14T14:29:32;8.20;99.90
18091;DHT22;9172;49.948;9.208;2023-03-14T14:32:03;8.20;99.90
18091;DHT22;9172;49.948;9.208;2023-03-14T14:34:38;8.20;99.90
18091;DHT22;9172;49.948;9.208;2023-03-14T14:37:18;8.20;99.90
18091;DHT22;9172;49.948;9.208;2023-03-14T14:39:48;8.20;99.90
18091;DHT22;9172;49.948;9.208;2023-03-14T14:42:20;8.20;99.90
18091;DHT22;9172;49.948;9.208;2023-03-14T14:44:51;8.20;99.90
18091;DHT22;9172;49.948;9.208;2023-03-14T14:47:22;8.10;99.90
18091;DHT22;9172;49.948;9.208;2023-03-14T14:49:53;8.10;99.90
18091;DHT22;9172;49.948;9.208;2023-03-14T14:52:31;8.10;99.90
18091;DHT22;9172;49.948;9.208;2023-03-14T14:55:02;8.10;99.90
18091;DHT22;9172;49.948;9.208;2023-03-14T14:57:37;8.10;99.90
18091;DHT22;9172;49.948;9.208;2023-03-14T15:00:08;8.10;99.90
18091;DHT22;9172;49.948;9.208;2023-03-14T15:02:44;8.00;99.90
18091;DHT22;9172;49.948;9.208;2023-03-14T15:05:13;7.90;99.90
18091;DHT22;9172;49.948;9.208;2023-03-14T15:07:43;7.80;99.90
18091;DHT22;9172;49.948;9.208;2023-03-14T15:10:14;7.80;99.90
18091;DHT22;9172;49.948;9.208;2023-03-14T15:12:43;7.70;99.90
18091;DHT22;9172;49.948;9.208;2023-03-14T15:15:12;7.60;99.90
18091;DHT22;9172;49.948;9.208;2023-03-14T15:17:42;7.50;99.90
18091;DHT22;9172;49.948;9.208;2023-03-14T15:20:14;7.40;99.90
18091;DHT22;9172;49.948;9.208;2023-03-14T15:22:43;7.30;99.90
18091;DHT22;9172;49.948;9.208;2023-03-14T15:25:12;7.20;99.90
18091;DHT22;9172;49.948;9.208;2023-03-14T15:27:41;7.20;99.90
18091;DHT22;9172;49.948;9.208;2023-03-14T15:30:13;7.20;99.90
18091;DHT22;9172;49.948;9.208;2023-03-14T15:32:43;7.20;99.90
18091;DHT22;9172;49.948;9.208;2023-03-14T15:35:12;7.20;99.90
18091;DHT22;9172;49.948;9.208;2023-03-14T15:37:42;7.10;99.90
18091;DHT22;9172;49.948;9.208;2023-03-14T15:40:14;7.00;99.90
18091;DHT22;9172;49.948;9.208;2023-03-14T15:42:44;7.00;99.90
18091;DHT22;9172;49.948;9.208;2023-03-14T15:45:13;7.00;99.90
18091;DHT22;9172;49.948;9.208;2023-03-14T15:47:43;7.00;99.90
18091;DHT22;9172;49.948;9.208;2023-03-14T15:50:12;7.00;99.90
18091;DHT22;9172;49.948;9.208;2023-03-14T15:52:41;7.00;99.90
18091;DHT22;9172;49.948;9.208;2023-03-14T15:55:10;7.00;99.90
18091;DHT22;9172;49.948;9.208;2023-03-14T15:57:40;6.90;99.90
18091;DHT22;9172;49.948;9.208;2023-03-14T16:00:12;6.90;99.90
18091;DHT22;9172;49.948;9.208;2023-03-14T16:02:42;6.80;99.90
18091;DHT22;9172;49.948;9.208;2023-03-14T16:05:11;6.80;99.90
18091;DHT22;9172;49.948;9.208;2023-03-14T16:07:41;6.70;99.90
18091;DHT22;9172;49.948;9.208;2023-03-14T16:10:11;6.70;99.90
18091;DHT22;9172;49.948;9.208;2023-03-14T16:12:41;6.80;99.90
18091;DHT22;9172;49.948;9.208;2023-03-14T16:15:11;6.80;99.90
18091;DHT22;9172;49.948;9.208;2023-03-14T16:17:40;6.80;99.90
18091;DHT22;9172;49.948;9.208;2023-03-14T16:20:11;6.80;99.90
18091;DHT22;9172;49.948;9.208;2023-03-14T16:22:40;6.80;99.90
18091;DHT22;9172;49.948;9.208;2023-03-14T16:25:11;6.80;99.90
18091;DHT22;9172;49.948;9.208;2023-03-14T16:27:39;6.80;99.90
18091;DHT22;9172;49.948;9.208;2023-03-14T16:30:11;6.90;99.90
18091;DHT22;9172;49.948;9.208;2023-03-14T16:32:42;6.90;99.90